sensor_id;sensor_type;location;lat;lon;timestamp;P1;durP1;ratioP1;P2;durP2;ratioP2
24008;SDS011;12217;50.792;4.372;2022-10-22T00:01:02;14.20;;;5.45;;
24008;SDS011;12217;50.792;4.372;2022-10-22T00:03:28;14.20;;;5.40;;
24008;SDS011;12217;50.792;4.372;2022-10-22T00:05:54;12.23;;;5.05;;
24008;SDS011;12217;50.792;4.372;2022-10-22T00:08:21;13.15;;;4.88;;
24008;SDS011;12217;50.792;4.372;2022-10-22T00:10:47;12.23;;;5.07;;
24008;SDS011;12217;50.792;4.372;2022-10-22T00:13:12;19.40;;;5.70;;
24008;SDS011;12217;50.792;4.372;2022-10-22T00:15:38;13.27;;;4.97;;
24008;SDS011;12217;50.792;4.372;2022-10-22T00:18:04;9.73;;;4.50;;
24008;SDS011;12217;50.792;4.372;2022-10-22T00:20:29;13.68;;;4.80;;
24008;SDS011;12217;50.792;4.372;2022-10-22T00:22:55;16.88;;;5.10;;
24008;SDS011;12217;50.792;4.372;2022-10-22T00:25:21;14.68;;;5.18;;
24008;SDS011;12217;50.792;4.372;2022-10-22T00:27:46;14.13;;;5.18;;
24008;SDS011;12217;50.792;4.372;2022-10-22T00:30:12;11.80;;;4.57;;
24008;SDS011;12217;50.792;4.372;2022-10-22T00:32:38;13.93;;;4.88;;
24008;SDS011;12217;50.792;4.372;2022-10-22T00:35:03;12.60;;;4.55;;
24008;SDS011;12217;50.792;4.372;2022-10-22T00:37:29;15.95;;;5.07;;
24008;SDS011;12217;50.792;4.372;2022-10-22T00:39:55;8.90;;;4.45;;
24008;SDS011;12217;50.792;4.372;2022-10-22T00:42:22;13.75;;;4.80;;
24008;SDS011;12217;50.792;4.372;2022-10-22T00:50:08;15.45;;;4.68;;
24008;SDS011;12217;50.792;4.372;2022-10-22T00:52:38;11.45;;;4.43;;
24008;SDS011;12217;50.792;4.372;2022-10-22T00:55:04;11.20;;;4.70;;
24008;SDS011;12217;50.792;4.372;2022-10-22T00:57:31;11.98;;;4.07;;
24008;SDS011;12217;50.792;4.372;2022-10-22T00:59:59;11.20;;;3.97;;
24008;SDS011;12217;50.792;4.372;2022-10-22T01:02:25;11.18;;;4.10;;
24008;SDS011;12217;50.792;4.372;2022-10-22T01:04:51;12.32;;;4.18;;
24008;SDS011;12217;50.792;4.372;2022-10-22T01:07:18;12.18;;;5.25;;
24008;SDS011;12217;50.792;4.372;2022-10-22T01:20:17;8.07;;;3.72;;
24008;SDS011;12217;50.792;4.372;2022-10-22T01:25:45;7.50;;;3.10;;
24008;SDS011;12217;50.792;4.372;2022-10-22T01:31:41;12.50;;;3.50;;
24008;SDS011;12217;50.792;4.372;2022-10-22T01:34:10;9.75;;;3.60;;
24008;SDS011;12217;50.792;4.372;2022-10-22T01:36:39;9.90;;;3.47;;
24008;SDS011;12217;50.792;4.372;2022-10-22T01:39:05;13.73;;;3.63;;
24008;SDS011;12217;50.792;4.372;2022-10-22T01:41:32;17.73;;;3.50;;
24008;SDS011;12217;50.792;4.372;2022-10-22T01:43:59;11.23;;;4.05;;
24008;SDS011;12217;50.792;4.372;2022-10-22T01:46:26;14.75;;;3.72;;
24008;SDS011;12217;50.792;4.372;2022-10-22T01:54:35;8.65;;;3.40;;
24008;SDS011;12217;50.792;4.372;2022-10-22T02:00:12;9.20;;;3.15;;
24008;SDS011;12217;50.792;4.372;2022-10-22T02:05:29;7.45;;;2.90;;
24008;SDS011;12217;50.792;4.372;2022-10-22T02:08:07;11.70;;;3.05;;
24008;SDS011;12217;50.792;4.372;2022-10-22T02:10:38;8.32;;;2.78;;
24008;SDS011;12217;50.792;4.372;2022-10-22T02:13:10;11.63;;;3.20;;
24008;SDS011;12217;50.792;4.372;2022-10-22T02:15:39;7.28;;;2.75;;
24008;SDS011;12217;50.792;4.372;2022-10-22T02:18:09;8.90;;;3.20;;
24008;SDS011;12217;50.792;4.372;2022-10-22T02:20:36;8.70;;;2.97;;
24008;SDS011;12217;50.792;4.372;2022-10-22T02:23:05;8.27;;;2.75;;
24008;SDS011;12217;50.792;4.372;2022-10-22T02:25:31;9.85;;;2.85;;
24008;SDS011;12217;50.792;4.372;2022-10-22T02:28:04;7.93;;;2.47;;
24008;SDS011;12217;50.792;4.372;2022-10-22T02:30:49;11.43;;;2.85;;
24008;SDS011;12217;50.792;4.372;2022-10-22T02:33:20;6.83;;;2.50;;
24008;SDS011;12217;50.792;4.372;2022-10-22T02:35:48;10.98;;;3.05;;
24008;SDS011;12217;50.792;4.372;2022-10-22T02:38:16;10.80;;;2.92;;
24008;SDS011;12217;50.792;4.372;2022-10-22T02:40:43;9.05;;;2.80;;
24008;SDS011;12217;50.792;4.372;2022-10-22T02:43:09;11.85;;;3.13;;
24008;SDS011;12217;50.792;4.372;2022-10-22T02:45:35;9.35;;;2.65;;
24008;SDS011;12217;50.792;4.372;2022-10-22T02:48:02;9.00;;;2.40;;
24008;SDS011;12217;50.792;4.372;2022-10-22T02:50:28;12.38;;;2.97;;
24008;SDS011;12217;50.792;4.372;2022-10-22T02:52:54;8.77;;;2.63;;
24008;SDS011;12217;50.792;4.372;2022-10-22T02:55:20;9.25;;;2.80;;
24008;SDS011;12217;50.792;4.372;2022-10-22T02:57:45;8.32;;;2.42;;
24008;SDS011;12217;50.792;4.372;2022-10-22T03:00:11;10.93;;;2.90;;
24008;SDS011;12217;50.792;4.372;2022-10-22T03:02:38;10.65;;;3.40;;
24008;SDS011;12217;50.792;4.372;2022-10-22T03:05:03;5.47;;;2.42;;
24008;SDS011;12217;50.792;4.372;2022-10-22T03:07:30;7.35;;;2.88;;
24008;SDS011;12217;50.792;4.372;2022-10-22T03:09:55;5.50;;;2.40;;
24008;SDS011;12217;50.792;4.372;2022-10-22T03:12:21;9.93;;;2.78;;
24008;SDS011;12217;50.792;4.372;2022-10-22T03:14:46;6.70;;;2.45;;
24008;SDS011;12217;50.792;4.372;2022-10-22T03:17:12;9.55;;;2.58;;
24008;SDS011;12217;50.792;4.372;2022-10-22T03:19:38;8.32;;;2.22;;
24008;SDS011;12217;50.792;4.372;2022-10-22T03:22:06;16.27;;;2.80;;
24008;SDS011;12217;50.792;4.372;2022-10-22T03:24:36;9.55;;;2.55;;
24008;SDS011;12217;50.792;4.372;2022-10-22T03:27:08;9.05;;;2.50;;
24008;SDS011;12217;50.792;4.372;2022-10-22T03:29:35;11.50;;;2.50;;
24008;SDS011;12217;50.792;4.372;2022-10-22T03:32:02;10.45;;;2.60;;
24008;SDS011;12217;50.792;4.372;2022-10-22T03:34:28;12.15;;;2.42;;
24008;SDS011;12217;50.792;4.372;2022-10-22T03:36:55;5.75;;;2.08;;
24008;SDS011;12217;50.792;4.372;2022-10-22T03:39:23;8.43;;;2.35;;
24008;SDS011;12217;50.792;4.372;2022-10-22T03:41:49;9.90;;;2.42;;
24008;SDS011;12217;50.792;4.372;2022-10-22T03:44:15;7.30;;;2.50;;
24008;SDS011;12217;50.792;4.372;2022-10-22T03:46:42;7.63;;;2.53;;
24008;SDS011;12217;50.792;4.372;2022-10-22T03:49:07;9.85;;;2.17;;
24008;SDS011;12217;50.792;4.372;2022-10-22T03:51:33;10.30;;;2.10;;
24008;SDS011;12217;50.792;4.372;2022-10-22T03:54:00;11.27;;;2.40;;
24008;SDS011;12217;50.792;4.372;2022-10-22T03:56:26;13.02;;;2.40;;
24008;SDS011;12217;50.792;4.372;2022-10-22T03:58:54;9.50;;;2.05;;
24008;SDS011;12217;50.792;4.372;2022-10-22T04:01:21;6.82;;;2.08;;
24008;SDS011;12217;50.792;4.372;2022-10-22T04:03:46;7.72;;;1.90;;
24008;SDS011;12217;50.792;4.372;2022-10-22T04:06:12;9.68;;;2.13;;
24008;SDS011;12217;50.792;4.372;2022-10-22T04:08:38;12.20;;;2.22;;
24008;SDS011;12217;50.792;4.372;2022-10-22T04:11:05;10.02;;;2.20;;
24008;SDS011;12217;50.792;4.372;2022-10-22T04:13:31;8.27;;;1.77;;
24008;SDS011;12217;50.792;4.372;2022-10-22T04:16:13;12.15;;;2.70;;
24008;SDS011;12217;50.792;4.372;2022-10-22T04:18:40;6.50;;;2.03;;
24008;SDS011;12217;50.792;4.372;2022-10-22T04:21:07;10.98;;;1.95;;
24008;SDS011;12217;50.792;4.372;2022-10-22T04:23:34;10.10;;;2.20;;
24008;SDS011;12217;50.792;4.372;2022-10-22T04:26:02;9.13;;;2.10;;
24008;SDS011;12217;50.792;4.372;2022-10-22T04:28:30;10.68;;;2.17;;
24008;SDS011;12217;50.792;4.372;2022-10-22T04:30:56;11.48;;;2.60;;
24008;SDS011;12217;50.792;4.372;2022-10-22T04:33:21;10.43;;;2.40;;
24008;SDS011;12217;50.792;4.372;2022-10-22T04:35:47;8.15;;;2.05;;
24008;SDS011;12217;50.792;4.372;2022-10-22T04:38:13;10.38;;;2.22;;
24008;SDS011;12217;50.792;4.372;2022-10-22T04:40:38;10.85;;;2.00;;
24008;SDS011;12217;50.792;4.372;2022-10-22T04:43:04;10.10;;;1.90;;
24008;SDS011;12217;50.792;4.372;2022-10-22T04:45:31;6.63;;;2.28;;
24008;SDS011;12217;50.792;4.372;2022-10-22T04:47:57;10.00;;;1.90;;
24008;SDS011;12217;50.792;4.372;2022-10-22T04:50:23;9.07;;;2.33;;
24008;SDS011;12217;50.792;4.372;2022-10-22T04:52:49;8.90;;;1.67;;
24008;SDS011;12217;50.792;4.372;2022-10-22T04:55:14;16.38;;;2.60;;
24008;SDS011;12217;50.792;4.372;2022-10-22T04:57:40;8.35;;;2.05;;
24008;SDS011;12217;50.792;4.372;2022-10-22T05:00:06;7.65;;;1.95;;
24008;SDS011;12217;50.792;4.372;2022-10-22T05:02:32;10.38;;;2.00;;
24008;SDS011;12217;50.792;4.372;2022-10-22T05:04:58;10.48;;;2.28;;
24008;SDS011;12217;50.792;4.372;2022-10-22T05:07:23;12.18;;;2.30;;
24008;SDS011;12217;50.792;4.372;2022-10-22T05:09:49;6.05;;;2.35;;
24008;SDS011;12217;50.792;4.372;2022-10-22T05:12:15;11.20;;;1.92;;
24008;SDS011;12217;50.792;4.372;2022-10-22T05:14:41;8.07;;;1.90;;
24008;SDS011;12217;50.792;4.372;2022-10-22T05:17:06;7.78;;;2.10;;
24008;SDS011;12217;50.792;4.372;2022-10-22T05:19:32;8.43;;;2.45;;
24008;SDS011;12217;50.792;4.372;2022-10-22T05:21:58;8.20;;;2.10;;
24008;SDS011;12217;50.792;4.372;2022-10-22T05:24:26;7.03;;;1.77;;
24008;SDS011;12217;50.792;4.372;2022-10-22T05:26:54;10.25;;;2.13;;
24008;SDS011;12217;50.792;4.372;2022-10-22T05:29:21;9.65;;;2.20;;
24008;SDS011;12217;50.792;4.372;2022-10-22T05:31:47;10.27;;;2.15;;
24008;SDS011;12217;50.792;4.372;2022-10-22T05:34:13;10.93;;;1.98;;
24008;SDS011;12217;50.792;4.372;2022-10-22T05:36:39;6.00;;;2.00;;
24008;SDS011;12217;50.792;4.372;2022-10-22T05:39:05;6.93;;;1.80;;
24008;SDS011;12217;50.792;4.372;2022-10-22T05:41:31;9.15;;;2.22;;
24008;SDS011;12217;50.792;4.372;2022-10-22T05:43:57;9.50;;;2.10;;
24008;SDS011;12217;50.792;4.372;2022-10-22T05:46:25;11.80;;;2.20;;
24008;SDS011;12217;50.792;4.372;2022-10-22T05:48:53;10.73;;;2.40;;
24008;SDS011;12217;50.792;4.372;2022-10-22T05:51:24;10.18;;;1.77;;
24008;SDS011;12217;50.792;4.372;2022-10-22T05:53:52;7.97;;;2.28;;
24008;SDS011;12217;50.792;4.372;2022-10-22T05:56:26;10.68;;;2.67;;
24008;SDS011;12217;50.792;4.372;2022-10-22T05:58:53;10.88;;;1.90;;
24008;SDS011;12217;50.792;4.372;2022-10-22T06:01:21;11.30;;;1.85;;
24008;SDS011;12217;50.792;4.372;2022-10-22T06:03:51;7.25;;;2.30;;
24008;SDS011;12217;50.792;4.372;2022-10-22T06:09:04;11.40;;;2.40;;
24008;SDS011;12217;50.792;4.372;2022-10-22T06:11:34;9.38;;;2.50;;
24008;SDS011;12217;50.792;4.372;2022-10-22T06:14:01;7.80;;;1.92;;
24008;SDS011;12217;50.792;4.372;2022-10-22T06:16:30;8.25;;;1.92;;
24008;SDS011;12217;50.792;4.372;2022-10-22T06:18:59;9.05;;;1.80;;
24008;SDS011;12217;50.792;4.372;2022-10-22T06:21:29;7.35;;;2.00;;
24008;SDS011;12217;50.792;4.372;2022-10-22T06:23:56;9.80;;;2.13;;
24008;SDS011;12217;50.792;4.372;2022-10-22T06:26:23;9.90;;;2.28;;
24008;SDS011;12217;50.792;4.372;2022-10-22T06:28:49;9.27;;;2.00;;
24008;SDS011;12217;50.792;4.372;2022-10-22T06:31:15;8.50;;;2.15;;
24008;SDS011;12217;50.792;4.372;2022-10-22T06:33:41;8.48;;;2.33;;
24008;SDS011;12217;50.792;4.372;2022-10-22T06:36:11;8.52;;;2.28;;
24008;SDS011;12217;50.792;4.372;2022-10-22T06:38:38;12.48;;;2.30;;
24008;SDS011;12217;50.792;4.372;2022-10-22T06:41:05;8.40;;;2.20;;
24008;SDS011;12217;50.792;4.372;2022-10-22T06:43:41;7.80;;;1.92;;
24008;SDS011;12217;50.792;4.372;2022-10-22T06:46:09;7.63;;;2.05;;
24008;SDS011;12217;50.792;4.372;2022-10-22T06:48:35;7.43;;;1.70;;
24008;SDS011;12217;50.792;4.372;2022-10-22T06:51:07;8.68;;;1.98;;
24008;SDS011;12217;50.792;4.372;2022-10-22T06:53:34;7.38;;;2.08;;
24008;SDS011;12217;50.792;4.372;2022-10-22T06:56:10;10.23;;;2.03;;
24008;SDS011;12217;50.792;4.372;2022-10-22T06:58:38;9.70;;;2.05;;
24008;SDS011;12217;50.792;4.372;2022-10-22T07:01:05;10.02;;;2.05;;
24008;SDS011;12217;50.792;4.372;2022-10-22T07:03:32;7.35;;;1.83;;
24008;SDS011;12217;50.792;4.372;2022-10-22T07:05:59;7.10;;;2.08;;
24008;SDS011;12217;50.792;4.372;2022-10-22T07:08:27;6.57;;;1.70;;
24008;SDS011;12217;50.792;4.372;2022-10-22T07:10:53;10.57;;;1.90;;
24008;SDS011;12217;50.792;4.372;2022-10-22T07:13:19;11.75;;;2.53;;
24008;SDS011;12217;50.792;4.372;2022-10-22T07:15:50;9.02;;;2.17;;
24008;SDS011;12217;50.792;4.372;2022-10-22T07:18:17;10.90;;;2.33;;
24008;SDS011;12217;50.792;4.372;2022-10-22T07:20:43;13.48;;;2.45;;
24008;SDS011;12217;50.792;4.372;2022-10-22T07:23:08;7.70;;;1.80;;
24008;SDS011;12217;50.792;4.372;2022-10-22T07:25:34;7.32;;;1.75;;
24008;SDS011;12217;50.792;4.372;2022-10-22T07:28:00;8.55;;;2.08;;
24008;SDS011;12217;50.792;4.372;2022-10-22T07:30:25;7.70;;;1.83;;
24008;SDS011;12217;50.792;4.372;2022-10-22T07:32:51;11.20;;;2.10;;
24008;SDS011;12217;50.792;4.372;2022-10-22T07:35:16;9.07;;;1.90;;
24008;SDS011;12217;50.792;4.372;2022-10-22T07:37:42;9.77;;;2.35;;
24008;SDS011;12217;50.792;4.372;2022-10-22T07:40:08;7.72;;;2.00;;
24008;SDS011;12217;50.792;4.372;2022-10-22T07:42:33;7.20;;;1.90;;
24008;SDS011;12217;50.792;4.372;2022-10-22T07:44:59;10.10;;;1.80;;
24008;SDS011;12217;50.792;4.372;2022-10-22T07:47:25;9.02;;;1.73;;
24008;SDS011;12217;50.792;4.372;2022-10-22T07:49:50;7.97;;;2.10;;
24008;SDS011;12217;50.792;4.372;2022-10-22T07:52:16;9.55;;;1.92;;
24008;SDS011;12217;50.792;4.372;2022-10-22T07:54:42;12.23;;;2.00;;
24008;SDS011;12217;50.792;4.372;2022-10-22T07:57:08;9.80;;;1.83;;
24008;SDS011;12217;50.792;4.372;2022-10-22T07:59:33;9.60;;;1.80;;
24008;SDS011;12217;50.792;4.372;2022-10-22T08:01:59;9.98;;;1.73;;
24008;SDS011;12217;50.792;4.372;2022-10-22T08:04:25;10.70;;;1.88;;
24008;SDS011;12217;50.792;4.372;2022-10-22T08:06:50;7.20;;;1.90;;
24008;SDS011;12217;50.792;4.372;2022-10-22T08:09:16;8.65;;;1.83;;
24008;SDS011;12217;50.792;4.372;2022-10-22T08:11:42;10.90;;;2.03;;
24008;SDS011;12217;50.792;4.372;2022-10-22T08:14:07;8.60;;;2.00;;
24008;SDS011;12217;50.792;4.372;2022-10-22T08:16:33;7.38;;;2.00;;
24008;SDS011;12217;50.792;4.372;2022-10-22T08:18:58;11.88;;;2.17;;
24008;SDS011;12217;50.792;4.372;2022-10-22T08:21:24;7.47;;;2.00;;
24008;SDS011;12217;50.792;4.372;2022-10-22T08:23:50;9.43;;;1.77;;
24008;SDS011;12217;50.792;4.372;2022-10-22T08:26:16;8.10;;;1.63;;
24008;SDS011;12217;50.792;4.372;2022-10-22T08:28:42;8.25;;;2.05;;
24008;SDS011;12217;50.792;4.372;2022-10-22T08:31:08;10.82;;;2.15;;
24008;SDS011;12217;50.792;4.372;2022-10-22T08:33:35;9.98;;;2.03;;
24008;SDS011;12217;50.792;4.372;2022-10-22T08:36:02;7.78;;;1.85;;
24008;SDS011;12217;50.792;4.372;2022-10-22T08:38:29;9.18;;;1.80;;
24008;SDS011;12217;50.792;4.372;2022-10-22T08:41:09;9.13;;;2.35;;
24008;SDS011;12217;50.792;4.372;2022-10-22T08:46:18;9.23;;;2.13;;
24008;SDS011;12217;50.792;4.372;2022-10-22T08:48:53;8.70;;;2.42;;
24008;SDS011;12217;50.792;4.372;2022-10-22T08:51:22;8.20;;;1.85;;
24008;SDS011;12217;50.792;4.372;2022-10-22T08:56:52;9.13;;;2.00;;
24008;SDS011;12217;50.792;4.372;2022-10-22T09:02:16;10.20;;;2.78;;
24008;SDS011;12217;50.792;4.372;2022-10-22T09:05:05;7.40;;;1.92;;
24008;SDS011;12217;50.792;4.372;2022-10-22T09:07:35;8.45;;;1.60;;
24008;SDS011;12217;50.792;4.372;2022-10-22T09:10:01;7.95;;;1.92;;
24008;SDS011;12217;50.792;4.372;2022-10-22T09:12:27;9.00;;;2.35;;
24008;SDS011;12217;50.792;4.372;2022-10-22T09:14:53;8.55;;;2.10;;
24008;SDS011;12217;50.792;4.372;2022-10-22T09:17:32;10.27;;;2.50;;
24008;SDS011;12217;50.792;4.372;2022-10-22T09:20:13;11.77;;;2.33;;
24008;SDS011;12217;50.792;4.372;2022-10-22T09:22:50;13.52;;;2.38;;
24008;SDS011;12217;50.792;4.372;2022-10-22T09:27:50;8.73;;;1.98;;
24008;SDS011;12217;50.792;4.372;2022-10-22T09:30:24;9.13;;;1.88;;
24008;SDS011;12217;50.792;4.372;2022-10-22T09:33:14;6.75;;;1.63;;
24008;SDS011;12217;50.792;4.372;2022-10-22T09:35:59;7.15;;;1.52;;
24008;SDS011;12217;50.792;4.372;2022-10-22T09:38:31;9.98;;;1.70;;
24008;SDS011;12217;50.792;4.372;2022-10-22T09:40:59;7.78;;;2.00;;
24008;SDS011;12217;50.792;4.372;2022-10-22T09:43:27;6.80;;;1.83;;
24008;SDS011;12217;50.792;4.372;2022-10-22T09:45:57;11.80;;;2.40;;
24008;SDS011;12217;50.792;4.372;2022-10-22T09:53:36;9.27;;;2.20;;
24008;SDS011;12217;50.792;4.372;2022-10-22T09:56:07;9.35;;;2.20;;
24008;SDS011;12217;50.792;4.372;2022-10-22T09:58:54;8.57;;;2.00;;
24008;SDS011;12217;50.792;4.372;2022-10-22T10:01:24;12.77;;;2.30;;
24008;SDS011;12217;50.792;4.372;2022-10-22T10:03:51;17.08;;;2.63;;
24008;SDS011;12217;50.792;4.372;2022-10-22T10:06:21;10.35;;;2.17;;
24008;SDS011;12217;50.792;4.372;2022-10-22T10:08:47;8.18;;;2.30;;
24008;SDS011;12217;50.792;4.372;2022-10-22T10:11:18;11.43;;;1.90;;
24008;SDS011;12217;50.792;4.372;2022-10-22T10:13:56;8.25;;;1.83;;
24008;SDS011;12217;50.792;4.372;2022-10-22T10:16:39;12.65;;;3.17;;
24008;SDS011;12217;50.792;4.372;2022-10-22T10:22:25;7.55;;;1.90;;
24008;SDS011;12217;50.792;4.372;2022-10-22T10:25:20;12.55;;;2.08;;
24008;SDS011;12217;50.792;4.372;2022-10-22T10:31:04;11.07;;;2.28;;
24008;SDS011;12217;50.792;4.372;2022-10-22T10:39:17;8.40;;;2.08;;
24008;SDS011;12217;50.792;4.372;2022-10-22T10:42:07;7.45;;;2.08;;
24008;SDS011;12217;50.792;4.372;2022-10-22T10:44:53;6.55;;;1.70;;
24008;SDS011;12217;50.792;4.372;2022-10-22T10:53:16;10.70;;;1.80;;
24008;SDS011;12217;50.792;4.372;2022-10-22T10:56:05;7.75;;;1.70;;
24008;SDS011;12217;50.792;4.372;2022-10-22T11:07:33;9.98;;;2.17;;
24008;SDS011;12217;50.792;4.372;2022-10-22T11:13:18;9.73;;;1.95;;
24008;SDS011;12217;50.792;4.372;2022-10-22T11:15:55;7.47;;;1.48;;
24008;SDS011;12217;50.792;4.372;2022-10-22T11:18:31;11.50;;;1.85;;
24008;SDS011;12217;50.792;4.372;2022-10-22T11:21:08;7.45;;;1.80;;
24008;SDS011;12217;50.792;4.372;2022-10-22T11:26:43;9.48;;;1.98;;
24008;SDS011;12217;50.792;4.372;2022-10-22T11:29:20;11.00;;;2.45;;
24008;SDS011;12217;50.792;4.372;2022-10-22T11:31:50;9.20;;;1.63;;
24008;SDS011;12217;50.792;4.372;2022-10-22T11:34:26;10.10;;;1.80;;
24008;SDS011;12217;50.792;4.372;2022-10-22T11:37:04;5.47;;;1.55;;
24008;SDS011;12217;50.792;4.372;2022-10-22T11:39:38;7.15;;;1.65;;
24008;SDS011;12217;50.792;4.372;2022-10-22T11:42:18;5.55;;;1.60;;
24008;SDS011;12217;50.792;4.372;2022-10-22T11:45:01;10.30;;;1.77;;
24008;SDS011;12217;50.792;4.372;2022-10-22T11:50:22;7.15;;;1.27;;
24008;SDS011;12217;50.792;4.372;2022-10-22T11:53:02;7.47;;;1.55;;
24008;SDS011;12217;50.792;4.372;2022-10-22T11:55:42;5.40;;;1.90;;
24008;SDS011;12217;50.792;4.372;2022-10-22T12:14:22;4.63;;;2.00;;
24008;SDS011;12217;50.792;4.372;2022-10-22T12:19:37;8.10;;;2.25;;
24008;SDS011;12217;50.792;4.372;2022-10-22T12:24:41;5.03;;;2.17;;
24008;SDS011;12217;50.792;4.372;2022-10-22T12:32:54;6.95;;;1.95;;
24008;SDS011;12217;50.792;4.372;2022-10-22T12:35:23;7.53;;;1.98;;
24008;SDS011;12217;50.792;4.372;2022-10-22T12:37:51;7.97;;;2.15;;
24008;SDS011;12217;50.792;4.372;2022-10-22T12:40:22;7.28;;;1.70;;
24008;SDS011;12217;50.792;4.372;2022-10-22T12:45:20;4.93;;;1.58;;
24008;SDS011;12217;50.792;4.372;2022-10-22T12:47:50;7.32;;;1.80;;
24008;SDS011;12217;50.792;4.372;2022-10-22T12:50:20;6.93;;;1.30;;
24008;SDS011;12217;50.792;4.372;2022-10-22T12:52:53;4.32;;;1.40;;
24008;SDS011;12217;50.792;4.372;2022-10-22T12:55:21;6.90;;;1.65;;
24008;SDS011;12217;50.792;4.372;2022-10-22T12:57:51;5.32;;;1.77;;
24008;SDS011;12217;50.792;4.372;2022-10-22T13:00:27;4.07;;;1.48;;
24008;SDS011;12217;50.792;4.372;2022-10-22T13:02:58;4.50;;;1.30;;
24008;SDS011;12217;50.792;4.372;2022-10-22T13:05:31;6.72;;;1.90;;
24008;SDS011;12217;50.792;4.372;2022-10-22T13:10:38;5.57;;;1.67;;
24008;SDS011;12217;50.792;4.372;2022-10-22T13:13:05;4.67;;;1.30;;
24008;SDS011;12217;50.792;4.372;2022-10-22T13:18:16;4.97;;;1.58;;
24008;SDS011;12217;50.792;4.372;2022-10-22T13:20:54;6.50;;;1.40;;
24008;SDS011;12217;50.792;4.372;2022-10-22T13:23:27;4.35;;;1.65;;
24008;SDS011;12217;50.792;4.372;2022-10-22T13:28:37;5.20;;;1.40;;
24008;SDS011;12217;50.792;4.372;2022-10-22T13:31:23;4.68;;;1.40;;
24008;SDS011;12217;50.792;4.372;2022-10-22T13:33:58;7.53;;;1.63;;
24008;SDS011;12217;50.792;4.372;2022-10-22T13:36:28;6.80;;;1.73;;
24008;SDS011;12217;50.792;4.372;2022-10-22T13:38:54;7.35;;;1.50;;
24008;SDS011;12217;50.792;4.372;2022-10-22T13:43:53;8.52;;;1.55;;
24008;SDS011;12217;50.792;4.372;2022-10-22T13:46:19;5.32;;;1.40;;
24008;SDS011;12217;50.792;4.372;2022-10-22T13:48:46;8.05;;;1.40;;
24008;SDS011;12217;50.792;4.372;2022-10-22T13:51:14;5.10;;;1.65;;
24008;SDS011;12217;50.792;4.372;2022-10-22T13:53:43;5.00;;;1.55;;
24008;SDS011;12217;50.792;4.372;2022-10-22T13:56:13;6.05;;;1.38;;
24008;SDS011;12217;50.792;4.372;2022-10-22T13:58:41;4.28;;;1.52;;
24008;SDS011;12217;50.792;4.372;2022-10-22T14:01:10;4.80;;;1.50;;
24008;SDS011;12217;50.792;4.372;2022-10-22T14:03:51;6.43;;;1.77;;
24008;SDS011;12217;50.792;4.372;2022-10-22T14:06:22;4.32;;;1.75;;
24008;SDS011;12217;50.792;4.372;2022-10-22T14:08:53;4.82;;;1.40;;
24008;SDS011;12217;50.792;4.372;2022-10-22T14:11:22;5.72;;;1.95;;
24008;SDS011;12217;50.792;4.372;2022-10-22T14:13:48;5.50;;;1.40;;
24008;SDS011;12217;50.792;4.372;2022-10-22T14:16:18;4.97;;;1.50;;
24008;SDS011;12217;50.792;4.372;2022-10-22T14:18:46;9.65;;;1.70;;
24008;SDS011;12217;50.792;4.372;2022-10-22T14:21:14;6.68;;;1.65;;
24008;SDS011;12217;50.792;4.372;2022-10-22T14:23:41;6.40;;;1.52;;
24008;SDS011;12217;50.792;4.372;2022-10-22T14:26:20;5.57;;;1.50;;
24008;SDS011;12217;50.792;4.372;2022-10-22T14:28:53;5.03;;;1.50;;
24008;SDS011;12217;50.792;4.372;2022-10-22T14:31:18;4.82;;;1.40;;
24008;SDS011;12217;50.792;4.372;2022-10-22T14:33:44;4.75;;;1.80;;
24008;SDS011;12217;50.792;4.372;2022-10-22T14:36:14;4.97;;;1.35;;
24008;SDS011;12217;50.792;4.372;2022-10-22T14:38:41;5.55;;;1.77;;
24008;SDS011;12217;50.792;4.372;2022-10-22T14:41:16;5.20;;;1.60;;
24008;SDS011;12217;50.792;4.372;2022-10-22T14:43:45;4.82;;;1.40;;
24008;SDS011;12217;50.792;4.372;2022-10-22T14:46:11;4.47;;;1.42;;
24008;SDS011;12217;50.792;4.372;2022-10-22T14:48:38;7.60;;;1.70;;
24008;SDS011;12217;50.792;4.372;2022-10-22T14:51:04;7.00;;;1.40;;
24008;SDS011;12217;50.792;4.372;2022-10-22T14:53:30;4.03;;;1.50;;
24008;SDS011;12217;50.792;4.372;2022-10-22T14:55:56;5.32;;;1.50;;
24008;SDS011;12217;50.792;4.372;2022-10-22T14:58:24;7.55;;;1.58;;
24008;SDS011;12217;50.792;4.372;2022-10-22T15:00:50;5.40;;;1.40;;
24008;SDS011;12217;50.792;4.372;2022-10-22T15:03:16;5.05;;;1.40;;
24008;SDS011;12217;50.792;4.372;2022-10-22T15:05:42;5.32;;;1.50;;
24008;SDS011;12217;50.792;4.372;2022-10-22T15:08:08;13.68;;;2.17;;
24008;SDS011;12217;50.792;4.372;2022-10-22T15:10:35;7.45;;;1.65;;
24008;SDS011;12217;50.792;4.372;2022-10-22T15:13:01;5.28;;;1.58;;
24008;SDS011;12217;50.792;4.372;2022-10-22T15:15:26;7.68;;;2.00;;
24008;SDS011;12217;50.792;4.372;2022-10-22T15:17:52;5.95;;;1.48;;
24008;SDS011;12217;50.792;4.372;2022-10-22T15:20:17;8.65;;;1.55;;
24008;SDS011;12217;50.792;4.372;2022-10-22T15:22:43;9.32;;;1.80;;
24008;SDS011;12217;50.792;4.372;2022-10-22T15:25:09;5.38;;;1.55;;
24008;SDS011;12217;50.792;4.372;2022-10-22T15:27:36;9.88;;;2.03;;
24008;SDS011;12217;50.792;4.372;2022-10-22T15:30:03;8.25;;;1.52;;
24008;SDS011;12217;50.792;4.372;2022-10-22T15:32:30;8.32;;;2.22;;
24008;SDS011;12217;50.792;4.372;2022-10-22T15:34:57;7.38;;;1.73;;
24008;SDS011;12217;50.792;4.372;2022-10-22T15:37:24;5.68;;;1.88;;
24008;SDS011;12217;50.792;4.372;2022-10-22T15:39:49;5.25;;;1.63;;
24008;SDS011;12217;50.792;4.372;2022-10-22T15:42:15;5.53;;;1.58;;
24008;SDS011;12217;50.792;4.372;2022-10-22T15:44:41;4.97;;;1.38;;
24008;SDS011;12217;50.792;4.372;2022-10-22T15:47:07;8.95;;;1.83;;
24008;SDS011;12217;50.792;4.372;2022-10-22T15:49:34;8.82;;;1.70;;
24008;SDS011;12217;50.792;4.372;2022-10-22T15:52:01;5.93;;;1.70;;
24008;SDS011;12217;50.792;4.372;2022-10-22T15:54:28;6.18;;;1.73;;
24008;SDS011;12217;50.792;4.372;2022-10-22T15:56:55;4.63;;;1.92;;
24008;SDS011;12217;50.792;4.372;2022-10-22T15:59:21;5.70;;;1.60;;
24008;SDS011;12217;50.792;4.372;2022-10-22T16:01:47;8.43;;;2.10;;
24008;SDS011;12217;50.792;4.372;2022-10-22T16:04:13;8.02;;;2.80;;
24008;SDS011;12217;50.792;4.372;2022-10-22T16:06:43;9.07;;;2.30;;
24008;SDS011;12217;50.792;4.372;2022-10-22T16:09:14;4.18;;;2.00;;
24008;SDS011;12217;50.792;4.372;2022-10-22T16:11:41;5.68;;;2.35;;
24008;SDS011;12217;50.792;4.372;2022-10-22T16:14:08;8.52;;;1.90;;
24008;SDS011;12217;50.792;4.372;2022-10-22T16:16:35;8.90;;;2.20;;
24008;SDS011;12217;50.792;4.372;2022-10-22T16:19:03;6.43;;;2.00;;
24008;SDS011;12217;50.792;4.372;2022-10-22T16:21:29;8.90;;;2.45;;
24008;SDS011;12217;50.792;4.372;2022-10-22T16:23:55;8.57;;;3.00;;
24008;SDS011;12217;50.792;4.372;2022-10-22T16:26:21;8.73;;;3.35;;
24008;SDS011;12217;50.792;4.372;2022-10-22T16:28:47;8.00;;;3.60;;
24008;SDS011;12217;50.792;4.372;2022-10-22T16:31:14;11.70;;;4.15;;
24008;SDS011;12217;50.792;4.372;2022-10-22T16:33:41;8.60;;;4.07;;
24008;SDS011;12217;50.792;4.372;2022-10-22T16:36:11;11.40;;;4.65;;
24008;SDS011;12217;50.792;4.372;2022-10-22T16:38:38;7.35;;;4.60;;
24008;SDS011;12217;50.792;4.372;2022-10-22T16:41:17;8.25;;;4.00;;
24008;SDS011;12217;50.792;4.372;2022-10-22T16:43:45;8.60;;;3.50;;
24008;SDS011;12217;50.792;4.372;2022-10-22T16:46:13;8.88;;;3.60;;
24008;SDS011;12217;50.792;4.372;2022-10-22T16:48:43;8.13;;;3.40;;
24008;SDS011;12217;50.792;4.372;2022-10-22T16:51:16;10.10;;;3.40;;
24008;SDS011;12217;50.792;4.372;2022-10-22T16:53:44;9.57;;;3.35;;
24008;SDS011;12217;50.792;4.372;2022-10-22T16:56:10;5.63;;;2.55;;
24008;SDS011;12217;50.792;4.372;2022-10-22T16:58:37;7.43;;;3.05;;
24008;SDS011;12217;50.792;4.372;2022-10-22T17:01:06;4.80;;;2.30;;